createdAt,value
2023-04-16T00:01:46.502Z,13.20
2023-04-16T00:04:13.258Z,14.13
2023-04-16T00:06:41.369Z,13.43
2023-04-16T00:09:08.323Z,13.50
2023-04-16T00:11:35.476Z,14.23
2023-04-16T00:14:02.338Z,15.45
2023-04-16T00:16:29.641Z,13.93
2023-04-16T00:18:56.735Z,15.10
2023-04-16T00:21:23.670Z,14.73
2023-04-16T00:23:51.742Z,15.52
2023-04-16T00:26:18.447Z,15.88
2023-04-16T00:28:45.141Z,16.03
2023-04-16T00:31:11.899Z,14.43
2023-04-16T00:33:38.693Z,16.10
2023-04-16T00:36:05.827Z,15.73
2023-04-16T00:38:32.626Z,14.68
2023-04-16T00:41:00.941Z,15.20
2023-04-16T00:43:27.791Z,15.30
2023-04-16T00:45:57.230Z,15.75
2023-04-16T00:48:24.419Z,14.43
2023-04-16T00:50:51.220Z,15.73
2023-04-16T00:53:17.946Z,17.13
2023-04-16T00:55:45.248Z,15.27
2023-04-16T00:58:13.369Z,15.77
2023-04-16T01:00:40.070Z,17.42
2023-04-16T01:03:06.857Z,16.90
2023-04-16T01:05:33.855Z,15.75
2023-04-16T01:08:00.594Z,18.33
2023-04-16T01:10:27.384Z,16.73
2023-04-16T01:12:54.076Z,15.27
2023-04-16T01:15:22.145Z,11.73
2023-04-16T01:17:48.927Z,17.00
2023-04-16T01:20:15.711Z,16.08
2023-04-16T01:22:43.787Z,14.48
2023-04-16T01:25:14.344Z,14.90
2023-04-16T01:27:41.050Z,14.48
2023-04-16T01:30:08.654Z,14.17
2023-04-16T01:32:35.412Z,14.63
2023-04-16T01:35:02.385Z,13.20
2023-04-16T01:37:29.419Z,12.95
2023-04-16T01:39:57.526Z,13.13
2023-04-16T01:42:24.344Z,12.73
2023-04-16T01:44:51.047Z,13.65
2023-04-16T01:47:17.775Z,13.10
2023-04-16T01:49:44.745Z,12.18
2023-04-16T01:52:11.469Z,12.02
2023-04-16T01:54:38.176Z,13.43
2023-04-16T01:57:06.175Z,12.30
2023-04-16T01:59:32.879Z,11.27
2023-04-16T02:02:03.512Z,11.27
2023-04-16T02:04:30.275Z,10.75
2023-04-16T02:06:56.923Z,10.27
2023-04-16T02:09:24.231Z,11.03
2023-04-16T02:11:51.175Z,11.35
2023-04-16T02:14:19.242Z,10.55
2023-04-16T02:16:46.006Z,9.10
2023-04-16T02:19:12.809Z,10.27
2023-04-16T02:21:39.609Z,9.65
2023-04-16T02:24:06.386Z,9.52
2023-04-16T02:26:33.134Z,10.18
2023-04-16T02:28:59.921Z,9.48
2023-04-16T02:31:27.998Z,9.85
2023-04-16T02:33:54.845Z,9.85
2023-04-16T02:36:21.527Z,9.88
2023-04-16T02:38:48.390Z,9.17
2023-04-16T02:41:15.106Z,9.15
2023-04-16T02:43:41.821Z,8.05
2023-04-16T02:46:08.623Z,9.35
2023-04-16T02:48:36.935Z,8.95
2023-04-16T02:51:03.834Z,8.75
2023-04-16T02:53:30.596Z,9.23
2023-04-16T02:55:57.352Z,9.20
2023-04-16T02:58:25.686Z,9.82
2023-04-16T03:00:53.112Z,9.48
2023-04-16T03:05:48.402Z,9.30
2023-04-16T03:08:15.123Z,9.30
2023-04-16T03:10:41.833Z,9.70
2023-04-16T03:13:08.519Z,10.30
2023-04-16T03:15:35.326Z,8.43
2023-04-16T03:18:02.054Z,8.95
2023-04-16T03:20:28.886Z,9.80
2023-04-16T03:22:56.888Z,11.32
2023-04-16T03:25:23.660Z,10.10
2023-04-16T03:27:50.353Z,11.57
2023-04-16T03:30:17.099Z,10.98
2023-04-16T03:32:43.871Z,13.13
2023-04-16T03:35:11.739Z,10.48
2023-04-16T03:37:38.407Z,14.73
2023-04-16T03:40:07.563Z,16.43
2023-04-16T03:42:34.275Z,13.43
2023-04-16T03:45:00.976Z,14.90
2023-04-16T03:47:27.812Z,15.43
2023-04-16T03:49:54.532Z,15.82
2023-04-16T03:52:21.237Z,14.25
2023-04-16T03:54:48.015Z,14.20
2023-04-16T03:57:16.169Z,13.50
2023-04-16T03:59:42.891Z,14.32
2023-04-16T04:02:09.737Z,14.13
2023-04-16T04:04:36.662Z,12.75
2023-04-16T04:07:03.486Z,15.30
2023-04-16T04:09:30.165Z,14.52
2023-04-16T04:11:56.889Z,13.93
2023-04-16T04:14:24.973Z,13.85
2023-04-16T04:16:51.666Z,14.00
2023-04-16T04:19:18.344Z,13.40
2023-04-16T04:21:45.067Z,13.27
2023-04-16T04:24:11.866Z,12.68
2023-04-16T04:26:38.601Z,11.25
2023-04-16T04:29:05.283Z,12.40
2023-04-16T04:31:33.349Z,12.50
2023-04-16T04:34:00.062Z,12.07
2023-04-16T04:36:26.769Z,12.40
2023-04-16T04:38:53.501Z,11.03
2023-04-16T04:41:20.372Z,11.55
2023-04-16T04:43:47.130Z,10.88
2023-04-16T04:46:13.869Z,10.70
2023-04-16T04:48:41.954Z,11.48
2023-04-16T04:51:08.806Z,11.15
2023-04-16T04:53:35.500Z,9.50
2023-04-16T04:56:12.085Z,9.60
2023-04-16T04:58:40.443Z,10.43
2023-04-16T05:03:33.837Z,12.00
2023-04-16T05:06:01.919Z,12.02
2023-04-16T05:08:28.616Z,11.52
2023-04-16T05:10:55.336Z,12.20
2023-04-16T05:13:22.028Z,13.20
2023-04-16T05:15:48.711Z,11.63
2023-04-16T05:18:15.393Z,13.23
2023-04-16T05:20:42.273Z,13.15
2023-04-16T05:23:10.333Z,13.43
2023-04-16T05:25:37.071Z,15.45
2023-04-16T05:28:04.011Z,15.10
2023-04-16T05:30:30.791Z,17.63
2023-04-16T05:32:57.582Z,21.17
2023-04-16T05:35:24.325Z,21.17
2023-04-16T05:37:51.007Z,23.80
2023-04-16T05:40:19.060Z,25.98
2023-04-16T05:42:45.764Z,24.27
2023-04-16T05:45:12.504Z,25.97
2023-04-16T05:47:39.172Z,24.67
2023-04-16T05:50:07.006Z,25.58
2023-04-16T05:52:33.685Z,24.05
2023-04-16T05:55:00.457Z,24.03
2023-04-16T05:57:28.561Z,25.17
2023-04-16T05:59:55.249Z,27.30
2023-04-16T06:02:22.119Z,24.97
2023-04-16T06:04:48.866Z,27.23
2023-04-16T06:07:15.624Z,28.70
2023-04-16T06:09:42.564Z,26.73
2023-04-16T06:12:09.702Z,26.45
2023-04-16T06:14:37.801Z,25.30
2023-04-16T06:17:04.547Z,25.42
2023-04-16T06:19:31.248Z,24.95
2023-04-16T06:21:57.988Z,26.38
2023-04-16T06:24:24.744Z,26.73
2023-04-16T06:26:51.506Z,17.67
2023-04-16T06:29:18.206Z,28.03
2023-04-16T06:31:46.258Z,28.97
2023-04-16T06:34:13.032Z,28.70
2023-04-16T06:36:39.702Z,28.63
2023-04-16T06:39:06.394Z,30.73
2023-04-16T06:41:33.150Z,32.13
2023-04-16T06:43:59.987Z,31.08
2023-04-16T06:46:26.736Z,30.33
2023-04-16T06:48:54.815Z,33.65
2023-04-16T06:51:21.515Z,34.70
2023-04-16T06:53:49.031Z,34.53
2023-04-16T06:58:42.305Z,32.60
2023-04-16T07:01:09.085Z,34.87
2023-04-16T07:03:36.555Z,29.88
2023-04-16T07:08:31.297Z,33.90
2023-04-16T07:10:57.974Z,31.60
2023-04-16T07:13:24.851Z,32.43
2023-04-16T07:15:51.524Z,31.23
2023-04-16T07:18:19.297Z,31.38
2023-04-16T07:20:48.053Z,28.60
2023-04-16T07:23:16.123Z,30.88
2023-04-16T07:25:42.781Z,30.10
2023-04-16T07:28:09.444Z,31.20
2023-04-16T07:30:36.760Z,32.27
2023-04-16T07:33:04.197Z,29.70
2023-04-16T07:37:57.749Z,28.00
2023-04-16T07:40:25.908Z,29.20
2023-04-16T07:42:52.753Z,28.80
2023-04-16T07:45:19.552Z,28.67
2023-04-16T07:47:46.293Z,29.20
2023-04-16T07:50:13.451Z,28.02
2023-04-16T07:52:40.187Z,28.15
2023-04-16T07:55:07.478Z,27.53
2023-04-16T07:57:35.679Z,26.73
2023-04-16T08:00:02.404Z,27.85
2023-04-16T08:02:29.247Z,28.08
2023-04-16T08:04:56.151Z,25.90
2023-04-16T08:07:23.126Z,27.63
2023-04-16T08:09:51.803Z,25.58
2023-04-16T08:12:18.639Z,25.52
2023-04-16T08:14:47.247Z,24.77
2023-04-16T08:17:13.988Z,25.25
2023-04-16T08:19:41.711Z,24.95
2023-04-16T08:22:08.404Z,27.88
2023-04-16T08:24:35.106Z,28.27
2023-04-16T08:27:11.424Z,29.33
2023-04-16T08:29:42.071Z,28.30
2023-04-16T08:32:10.143Z,26.00
2023-04-16T08:34:37.089Z,25.88
2023-04-16T08:37:03.758Z,26.23
2023-04-16T08:39:30.431Z,26.70
2023-04-16T08:41:58.133Z,24.20
2023-04-16T08:44:27.039Z,24.75
2023-04-16T08:46:55.134Z,23.73
2023-04-16T08:49:24.588Z,23.05
2023-04-16T08:51:52.719Z,25.15
2023-04-16T08:54:30.817Z,24.55
2023-04-16T08:56:58.456Z,24.15
2023-04-16T08:59:25.488Z,22.15
2023-04-16T09:01:52.984Z,22.88
2023-04-16T09:04:24.172Z,22.48
2023-04-16T09:06:52.449Z,22.48
2023-04-16T09:09:20.917Z,22.67
2023-04-16T09:11:51.053Z,22.55
2023-04-16T09:14:18.023Z,22.98
2023-04-16T09:16:45.982Z,22.67
2023-04-16T09:19:12.733Z,23.15
2023-04-16T09:21:41.849Z,23.60
2023-04-16T09:24:08.767Z,22.08
2023-04-16T09:26:36.215Z,20.85
2023-04-16T09:29:03.140Z,21.45
2023-04-16T09:31:30.085Z,20.05
2023-04-16T09:34:06.622Z,20.67
2023-04-16T09:36:34.195Z,21.35
2023-04-16T09:41:30.786Z,21.70
2023-04-16T09:43:58.895Z,21.17
2023-04-16T09:46:30.307Z,22.88
2023-04-16T09:48:57.161Z,21.95
2023-04-16T09:51:23.894Z,25.27
2023-04-16T09:53:52.547Z,23.20
2023-04-16T09:56:24.405Z,22.90
2023-04-16T09:58:51.376Z,23.38
2023-04-16T10:01:18.682Z,23.60
2023-04-16T10:06:17.821Z,22.70
2023-04-16T10:08:48.489Z,24.23
2023-04-16T10:11:16.836Z,22.33
2023-04-16T10:13:45.461Z,23.42
2023-04-16T10:16:12.569Z,23.50
2023-04-16T10:18:40.927Z,23.38
2023-04-16T10:21:08.687Z,20.77
2023-04-16T10:23:35.845Z,23.65
2023-04-16T10:26:03.055Z,22.98
2023-04-16T10:28:30.231Z,24.05
2023-04-16T10:30:59.628Z,21.98
2023-04-16T10:33:28.353Z,24.27
2023-04-16T10:36:08.225Z,25.08
2023-04-16T10:38:37.568Z,23.48
2023-04-16T10:41:05.517Z,23.20
2023-04-16T10:43:39.152Z,22.55
2023-04-16T10:46:21.275Z,24.13
2023-04-16T10:48:50.190Z,22.15
2023-04-16T10:51:28.478Z,22.48
2023-04-16T10:53:56.741Z,22.63
2023-04-16T10:56:24.397Z,20.35
2023-04-16T10:58:53.557Z,21.38
2023-04-16T11:01:30.018Z,22.30
2023-04-16T11:03:59.095Z,18.75
2023-04-16T11:06:26.782Z,19.25
2023-04-16T11:11:22.526Z,18.63
2023-04-16T11:13:49.410Z,18.85
2023-04-16T11:16:16.799Z,18.85
2023-04-16T11:18:51.356Z,16.63
2023-04-16T11:21:19.412Z,15.30
2023-04-16T11:26:23.965Z,15.82
2023-04-16T11:28:50.811Z,15.30
2023-04-16T11:31:17.562Z,14.77
2023-04-16T11:33:45.667Z,15.27
2023-04-16T11:36:12.453Z,15.63
2023-04-16T11:38:39.765Z,13.90
2023-04-16T11:41:07.214Z,13.77
2023-04-16T11:43:34.088Z,14.30
2023-04-16T11:46:07.891Z,14.70
2023-04-16T11:48:48.749Z,13.98
2023-04-16T11:51:15.498Z,13.65
2023-04-16T11:53:49.726Z,14.00
2023-04-16T11:56:24.529Z,13.70
2023-04-16T11:59:06.752Z,13.25
2023-04-16T12:01:35.313Z,13.82
2023-04-16T12:04:04.058Z,13.30
2023-04-16T12:06:31.268Z,12.82
2023-04-16T12:08:58.013Z,12.85
2023-04-16T12:11:38.063Z,12.48
2023-04-16T12:14:08.548Z,11.55
2023-04-16T12:16:35.961Z,11.63
2023-04-16T12:19:05.407Z,11.60
2023-04-16T12:21:39.718Z,11.05
2023-04-16T12:24:07.850Z,11.23
2023-04-16T12:26:42.437Z,10.60
2023-04-16T12:29:19.629Z,12.55
2023-04-16T12:31:46.844Z,10.38
2023-04-16T12:34:15.255Z,11.05
2023-04-16T12:36:42.357Z,9.85
2023-04-16T12:39:09.747Z,7.60
2023-04-16T12:44:08.287Z,5.25
2023-04-16T12:46:35.947Z,5.30
2023-04-16T12:49:02.681Z,5.47
2023-04-16T12:51:31.477Z,4.63
2023-04-16T12:53:58.298Z,4.85
2023-04-16T12:56:25.009Z,4.97
2023-04-16T12:58:51.748Z,5.38
2023-04-16T13:01:19.253Z,4.97
2023-04-16T13:06:13.514Z,4.50
2023-04-16T13:08:41.701Z,4.47
2023-04-16T13:11:08.774Z,5.20
2023-04-16T13:13:35.435Z,4.50
2023-04-16T13:16:02.340Z,4.97
2023-04-16T13:18:29.035Z,5.35
2023-04-16T13:20:55.839Z,5.60
2023-04-16T13:23:22.521Z,5.65
2023-04-16T13:25:50.723Z,5.33
2023-04-16T13:28:17.551Z,4.78
2023-04-16T13:30:45.121Z,5.72
2023-04-16T13:35:38.922Z,4.53
2023-04-16T13:38:05.639Z,4.82
2023-04-16T13:40:32.378Z,5.10
2023-04-16T13:43:00.441Z,5.00
2023-04-16T13:45:27.138Z,6.13
2023-04-16T13:47:54.670Z,5.47
2023-04-16T13:50:21.457Z,4.82
2023-04-16T13:52:48.135Z,5.87
2023-04-16T13:55:14.998Z,6.90
2023-04-16T13:57:41.698Z,6.35
2023-04-16T14:00:13.090Z,6.17
2023-04-16T14:02:41.143Z,6.22
2023-04-16T14:05:08.441Z,6.25
2023-04-16T14:07:35.331Z,6.43
2023-04-16T14:10:02.051Z,12.02
2023-04-16T14:12:28.933Z,10.98
2023-04-16T14:14:56.246Z,8.15
2023-04-16T14:17:24.353Z,18.95
2023-04-16T14:19:51.129Z,18.35
2023-04-16T14:22:17.849Z,13.33
2023-04-16T14:24:44.716Z,10.43
2023-04-16T14:27:11.482Z,13.02
2023-04-16T14:29:38.329Z,21.77
2023-04-16T14:32:05.673Z,21.95
2023-04-16T14:34:33.800Z,12.23
2023-04-16T14:37:00.606Z,13.38
2023-04-16T14:39:27.324Z,10.70
2023-04-16T14:41:53.996Z,11.93
2023-04-16T14:44:20.830Z,13.00
2023-04-16T14:46:47.555Z,14.02
2023-04-16T14:49:14.608Z,13.77
2023-04-16T14:51:45.880Z,12.20
2023-04-16T14:54:12.629Z,14.48
2023-04-16T14:56:39.364Z,14.10
2023-04-16T14:59:06.272Z,16.10
2023-04-16T15:01:33.274Z,18.20
2023-04-16T15:04:02.108Z,20.58
2023-04-16T15:06:29.052Z,15.60
2023-04-16T15:08:57.088Z,15.93
2023-04-16T15:11:23.838Z,13.77
2023-04-16T15:13:50.579Z,18.43
2023-04-16T15:16:17.732Z,28.92
2023-04-16T15:18:44.562Z,23.02
2023-04-16T15:21:12.649Z,16.73
2023-04-16T15:23:39.654Z,21.20
2023-04-16T15:26:07.733Z,19.95
2023-04-16T15:28:34.487Z,22.55
2023-04-16T15:31:01.437Z,18.83
2023-04-16T15:33:28.315Z,20.98
2023-04-16T15:35:55.036Z,23.75
2023-04-16T15:38:21.743Z,19.30
2023-04-16T15:40:48.632Z,21.43
2023-04-16T15:43:16.834Z,22.75
2023-04-16T15:45:43.550Z,21.98
2023-04-16T15:48:10.304Z,21.47
2023-04-16T15:50:37.196Z,23.10
2023-04-16T15:53:04.018Z,26.70
2023-04-16T15:55:30.739Z,21.50
2023-04-16T15:57:57.438Z,43.47
2023-04-16T16:00:25.794Z,25.05
2023-04-16T16:02:52.785Z,27.02
2023-04-16T16:05:19.626Z,24.67
2023-04-16T16:07:46.410Z,26.50
2023-04-16T16:10:13.445Z,21.80
2023-04-16T16:12:40.849Z,22.85
2023-04-16T16:15:08.332Z,20.17
2023-04-16T16:20:03.579Z,23.23
2023-04-16T16:22:30.352Z,20.48
2023-04-16T16:24:57.752Z,21.20
2023-04-16T16:27:24.509Z,24.73
2023-04-16T16:29:51.184Z,21.93
2023-04-16T16:32:17.856Z,20.50
2023-04-16T16:34:51.533Z,21.50
2023-04-16T16:37:18.198Z,19.25
2023-04-16T16:39:44.934Z,20.03
2023-04-16T16:42:11.613Z,22.70
2023-04-16T16:44:38.415Z,21.37
2023-04-16T16:47:05.205Z,24.55
2023-04-16T16:49:31.961Z,26.42
2023-04-16T16:51:59.999Z,22.13
2023-04-16T16:54:26.746Z,24.20
2023-04-16T16:56:53.461Z,26.37
2023-04-16T16:59:20.159Z,31.73
2023-04-16T17:01:46.869Z,32.28
2023-04-16T17:04:13.665Z,28.90
2023-04-16T17:06:40.478Z,30.95
2023-04-16T17:09:08.643Z,30.33
2023-04-16T17:11:35.457Z,31.65
2023-04-16T17:14:02.181Z,30.43
2023-04-16T17:16:28.902Z,30.87
2023-04-16T17:18:55.867Z,30.27
2023-04-16T17:21:22.592Z,30.02
2023-04-16T17:23:49.280Z,33.93
2023-04-16T17:26:17.313Z,35.67
2023-04-16T17:28:44.018Z,37.55
2023-04-16T17:31:11.389Z,35.07
2023-04-16T17:33:38.153Z,29.73
2023-04-16T17:36:05.970Z,35.60
2023-04-16T17:38:32.924Z,32.17
2023-04-16T17:40:59.718Z,33.70
2023-04-16T17:43:27.752Z,35.92
2023-04-16T17:45:54.474Z,36.50
2023-04-16T17:48:21.218Z,43.87
2023-04-16T17:50:47.908Z,43.15
2023-04-16T17:53:14.612Z,41.28
2023-04-16T17:55:50.012Z,46.57
2023-04-16T17:58:16.699Z,43.13
2023-04-16T18:00:45.260Z,36.30
2023-04-16T18:03:12.235Z,41.80
2023-04-16T18:05:39.232Z,39.40
2023-04-16T18:08:06.071Z,37.75
2023-04-16T18:10:32.823Z,40.83
2023-04-16T18:12:59.528Z,38.37
2023-04-16T18:15:26.792Z,40.87
2023-04-16T18:17:54.902Z,38.50
2023-04-16T18:20:21.747Z,37.60
2023-04-16T18:22:48.549Z,37.65
2023-04-16T18:25:16.135Z,36.17
2023-04-16T18:27:42.967Z,38.40
2023-04-16T18:30:20.073Z,37.40
2023-04-16T18:33:16.497Z,36.63
2023-04-16T18:35:40.547Z,33.92
2023-04-16T18:38:07.362Z,37.13
2023-04-16T18:40:34.688Z,38.42
2023-04-16T18:43:01.404Z,39.17
2023-04-16T18:45:28.370Z,35.33
2023-04-16T18:47:55.269Z,36.65
2023-04-16T18:50:21.979Z,35.00
2023-04-16T18:52:50.003Z,35.87
2023-04-16T18:55:16.817Z,36.85
2023-04-16T18:57:43.606Z,35.75
2023-04-16T19:00:11.479Z,32.78
2023-04-16T19:02:38.285Z,34.75
2023-04-16T19:05:05.855Z,38.38
2023-04-16T19:10:00.620Z,39.65
2023-04-16T19:12:27.330Z,37.83
2023-04-16T19:14:54.036Z,34.43
2023-04-16T19:17:21.866Z,40.58
2023-04-16T19:19:48.626Z,39.80
2023-04-16T19:22:15.296Z,37.03
2023-04-16T19:24:41.996Z,40.10
2023-04-16T19:27:10.047Z,34.37
2023-04-16T19:29:36.837Z,36.38
2023-04-16T19:32:03.830Z,37.40
2023-04-16T19:34:30.603Z,36.90
2023-04-16T19:36:57.295Z,30.98
2023-04-16T19:39:26.306Z,35.77
2023-04-16T19:41:53.040Z,34.60
2023-04-16T19:44:23.679Z,33.03
2023-04-16T19:46:50.405Z,33.72
2023-04-16T19:49:17.092Z,33.83
2023-04-16T19:51:43.804Z,30.63
2023-04-16T19:54:10.493Z,32.30
2023-04-16T19:56:37.173Z,33.57
2023-04-16T19:59:03.871Z,31.97
2023-04-16T20:01:31.984Z,31.08
2023-04-16T20:03:58.809Z,34.83
2023-04-16T20:06:25.493Z,33.13
2023-04-16T20:08:52.281Z,32.97
2023-04-16T20:11:19.168Z,31.20
2023-04-16T20:13:46.345Z,33.40
2023-04-16T20:16:13.092Z,33.97
2023-04-16T20:18:41.298Z,33.08
2023-04-16T20:21:08.341Z,33.10
2023-04-16T20:23:35.058Z,35.13
2023-04-16T20:26:01.860Z,35.83
2023-04-16T20:28:28.555Z,34.67
2023-04-16T20:30:55.256Z,34.17
2023-04-16T20:33:21.943Z,33.30
2023-04-16T20:35:50.083Z,33.17
2023-04-16T20:38:16.742Z,33.60
2023-04-16T20:40:44.432Z,33.23
2023-04-16T20:43:11.133Z,34.40
2023-04-16T20:45:37.817Z,32.87
2023-04-16T20:48:04.871Z,33.38
2023-04-16T20:50:31.574Z,33.13
2023-04-16T20:52:59.575Z,32.00
2023-04-16T20:55:26.377Z,31.95
2023-04-16T20:57:53.040Z,29.25
2023-04-16T21:00:20.408Z,33.85
2023-04-16T21:02:47.256Z,32.30
2023-04-16T21:05:14.101Z,32.40
2023-04-16T21:07:41.141Z,33.38
2023-04-16T21:10:10.624Z,30.25
2023-04-16T21:12:37.356Z,30.02
2023-04-16T21:15:04.681Z,30.77
2023-04-16T21:17:31.683Z,29.23
2023-04-16T21:19:58.399Z,29.60
2023-04-16T21:22:25.179Z,29.33
2023-04-16T21:24:51.902Z,25.02
2023-04-16T21:27:19.936Z,29.15
2023-04-16T21:29:46.623Z,27.85
2023-04-16T21:32:13.358Z,28.10
2023-04-16T21:34:40.037Z,25.40
2023-04-16T21:37:06.785Z,25.30
2023-04-16T21:39:33.550Z,26.63
2023-04-16T21:42:00.232Z,22.52
2023-04-16T21:44:28.325Z,23.57
2023-04-16T21:46:55.027Z,22.77
2023-04-16T21:49:21.824Z,24.93
2023-04-16T21:51:48.512Z,23.58
2023-04-16T21:54:15.282Z,24.77
2023-04-16T21:56:41.966Z,26.60
2023-04-16T21:59:08.801Z,24.00
2023-04-16T22:01:36.937Z,23.98
2023-04-16T22:04:03.907Z,26.67
2023-04-16T22:06:30.643Z,22.85
2023-04-16T22:08:57.379Z,26.00
2023-04-16T22:11:30.278Z,27.15
2023-04-16T22:13:57.020Z,25.77
2023-04-16T22:16:23.963Z,28.42
2023-04-16T22:18:52.115Z,27.27
2023-04-16T22:21:18.830Z,27.85
2023-04-16T22:23:46.124Z,29.43
2023-04-16T22:26:12.898Z,29.20
2023-04-16T22:28:39.653Z,30.92
2023-04-16T22:31:06.353Z,29.55
2023-04-16T22:33:33.091Z,29.90
2023-04-16T22:36:01.154Z,30.80
2023-04-16T22:38:27.866Z,29.88
2023-04-16T22:40:54.653Z,32.03
2023-04-16T22:43:21.615Z,33.40
2023-04-16T22:45:48.392Z,31.52
2023-04-16T22:48:15.133Z,31.52
2023-04-16T22:50:45.415Z,28.87
2023-04-16T22:53:13.601Z,31.45
2023-04-16T22:55:40.416Z,29.90
2023-04-16T22:58:07.289Z,28.73
2023-04-16T23:00:34.116Z,31.50
2023-04-16T23:03:01.020Z,29.58
2023-04-16T23:05:27.924Z,28.20
2023-04-16T23:07:54.642Z,28.38
2023-04-16T23:10:22.687Z,30.25
2023-04-16T23:12:49.481Z,27.67
2023-04-16T23:15:16.362Z,27.38
2023-04-16T23:17:43.222Z,27.08
2023-04-16T23:20:11.118Z,28.88
2023-04-16T23:22:37.887Z,27.45
2023-04-16T23:25:05.276Z,29.00
2023-04-16T23:27:33.615Z,26.02
2023-04-16T23:30:00.512Z,28.42
2023-04-16T23:32:27.356Z,28.10
2023-04-16T23:34:54.094Z,28.52
2023-04-16T23:37:20.846Z,26.27
2023-04-16T23:39:47.801Z,27.50
2023-04-16T23:42:14.799Z,31.83
2023-04-16T23:44:43.009Z,27.90
2023-04-16T23:47:09.753Z,30.23
2023-04-16T23:49:36.581Z,27.07
2023-04-16T23:52:03.944Z,27.23
2023-04-16T23:54:30.754Z,28.40
2023-04-16T23:56:57.430Z,30.17
2023-04-16T23:59:24.122Z,29.23
